Historyczne dane pomiarowe

Dodano dane terminowe – wersja testowa.

Dane z okresu 1951-2019

Wersja bazy: 1.34 [2019-03-16, lista zmian], aktualizacja planowana na 2019-04-15

Dane meteo z obszaru Polski uzyskane na podstawie danych udostępnionych przez Instytut Meteorologii i Gospodarki Wodnej – Państwowy Instytut Badawczy.

 

Wybierz Datę:    

       

TemperaturaWilgotnośćWiatrCiśnienieOpadyŚniegCzas trwania zjawisk
 Stacja t tx tn tng RH VA  wxwx mslp ppp RRR   cm mm wxwxwxwxwxwxwx
1994-08-14 14.8 19.7 8.8- 78.3- 6.3 0.3---- 0.0------------
1994-08-13 15.4 20.2 12.5- 87.8- 7.0 0.3---- 2.3------------
1994-08-12 15.8 20.6 11.7- 90.0- 7.7 0.0---- 0.6------------
1994-08-11 19.7 27.6 12.5- 73.0- 7.7 3.0---- 8.0------------
1994-08-10 19.1 26.6 14.2- 79.5- 5.0 0.0---- 0.0------------
1994-08-09 19.1 27.8 13.8- 79.5- 4.7 3.0---- 2.3------------
1994-08-08 21.4 28.3 15.5- 78.0- 3.3 1.3---- 2.8------------
1994-08-07 20.2 28.6 10.9- 74.5- 4.3 0.3---- 0.0------------
1994-08-06 20.8 30.2 9.4- 74.5- 3.0 0.7---- 15.6------------
1994-08-05 20.4 29.1 11.6- 72.3- 3.7 0.7---- 0.0------------
1994-08-04 21.2 27.7 15.3- 77.5- 2.7 2.0---- 0.0------------
1994-08-03 20.8 29.7 11.6- 78.0- 3.7 1.0---- 1.2------------
1994-08-02 23.5 32.3 11.7- 63.0- 1.0 1.0---- 0.0------------
1994-08-01 23.3 32.6 12.6- 67.0- 0.0 0.0---- 0.0------------
1994-07-31 21.4 31.7 10.9- 72.5- 1.0 0.7---- 0.0------------
1994-07-30 21.9 31.6 10.5- 69.3- 0.7 0.3---- 0.0------------
1994-07-29 21.4 31.6 9.4- 65.5- 0.7 0.0---- 0.0------------
1994-07-28 21.1 31.4 11.0- 63.5- 0.0 0.0---- 0.0------------
1994-07-27 20.8 30.8 10.4- 63.5- 1.7 0.3---- 0.0------------
1994-07-26 22.1 30.1 11.6- 58.5- 4.3 0.3---- 0.0------------
1994-07-25 19.3 28.8 8.6- 73.5- 2.3 0.7---- 0.0------------
1994-07-24 17.3 28.1 8.8- 81.0- 1.0 0.0---- 0.0------------
1994-07-23 18.5 26.8 7.6- 69.5- 1.0 0.3---- 0.0------------
1994-07-22 17.8 26.2 6.8- 67.0- 0.7 0.7---- 0.0------------
1994-07-21 17.7 24.6 5.5- 65.5- 0.0 1.0---- 0.0------------
1994-07-20 17.3 22.4 8.6- 64.5- 2.7 1.3---- 0.0------------
1994-07-19 18.1 23.5 12.6- 73.8- 2.7 1.0---- 0.0------------
1994-07-18 19.3 24.7 15.5- 86.8- 4.7 0.3---- 0.0------------
1994-07-17 20.9 27.5 12.9- 78.8- 5.3 1.0---- 2.7------------
1994-07-16 20.9 29.5 11.5- 78.0- 2.7 0.3---- 0.0------------
1994-07-15 20.3 26.1 11.8- 75.3- 3.7 0.0---- 0.0------------
1994-07-14 19.3 30.0 9.4- 77.8- 4.3 1.0---- 0.0------------
1994-07-13 18.9 25.2 9.4- 77.8- 3.3 0.7---- 0.0------------
1994-07-12 19.4 24.6 15.1- 77.5- 4.3 1.3---- 0.0------------
1994-07-11 16.1 20.5 5.9- 84.0- 7.7 1.0---- 0.0------------
1994-07-10 15.3 19.5 8.9- 83.8- 7.0 1.0---- 1.0------------
1994-07-09 12.4 19.1 5.9- 87.3- 7.7 0.3---- 6.1------------
1994-07-08 17.3 20.3 14.2- 74.3- 4.3 0.3---- 0.0------------
1994-07-07 16.6 25.1 7.1- 75.5- 5.0 1.0---- 4.2------------
1994-07-06 18.4 22.9 9.0- 67.0- 5.0 1.0---- 0.0------------
1994-07-05 18.9 26.8 7.9- 74.5- 4.0 0.3---- 0.0------------
1994-07-04 17.9 25.7 6.0- 74.3- 1.0 0.3---- 0.0------------
1994-07-03 16.9 24.3 7.4- 67.5- 1.0 2.0---- 0.0------------
1994-07-02 16.5 22.0 6.6- 65.3- 0.7 1.3---- 0.0------------
1994-07-01 19.1 23.8 16.3- 69.0- 3.0 1.7---- 0.0------------
1994-06-30 22.2 27.9 14.5- 80.8- 5.3 1.7---- 0.0------------
1994-06-29 21.8 28.8 12.8- 79.8- 1.0 1.0---- 0.0------------
1994-06-28 21.9 28.1 14.4- 78.3- 1.0 0.7---- 0.0------------
1994-06-27 22.4 28.2 16.4- 64.5- 1.3 0.7---- 0.0------------
1994-06-26 17.2 24.8 5.4- 60.5- 0.3 2.0---- 0.0------------
1994-06-25 12.6 20.7 1.5- 70.5- 0.0 0.0---- 0.0------------
1994-06-24 12.8 19.1 2.7- 58.5- 0.0 0.7---- 0.0------------
1994-06-23 16.7 20.6 13.9- 64.8- 4.7 1.7---- 0.0------------
1994-06-22 16.0 23.8 4.2- 78.3- 5.3 3.7---- 0.0------------
1994-06-21 13.5 17.5 5.4- 78.0- 1.7 1.3---- 0.0------------
1994-06-20 16.6 20.8 12.3- 78.8- 2.7 1.7---- 0.0------------
1994-06-19 14.2 20.0 10.5- 90.3- 7.0 1.3---- 0.0------------
1994-06-18 10.8 16.3 1.1- 75.0- 4.7 1.7---- 6.0------------
1994-06-17 11.9 16.0 8.4- 73.0- 4.0 2.0---- 0.0------------
1994-06-16 13.0 20.0 4.6- 68.8- 7.3 1.7---- 0.0------------
221.3 ms

 

Źródłem pochodzenia danych jest Instytut Meteorologii i Gospodarki Wodnej – Państwowy Instytut Badawczy. Dane Instytutu Meteorologii i Gospodarki Wodnej – Państwowego Instytutu Badawczego zostały przetworzone.

Dane źródłowe można odnaleźć na stronie https://dane.imgw.pl